TOM63E EDLW-EGGW
Flight info
| Callsign | TOM63E |
|---|---|
| Flight time | 1h 14m |
| Altitude | 32000 |
| Route | DOMEG3Q DOMEG N853 HMM L602 FLEVO L980 IDRID M40 RINIS |
| Aircraft | B738/M-SDE2E3FGHIRWXY/LB1 |
Departure
| Time | 2026-05-05 18:55 |
|---|---|
| Airport | Dortmund Airport (EDLW) |
Arrival
| Time | 2026-05-05 20:10 |
|---|---|
| Airport | London Luton Airport (EGGW) |
| Time | Latitude | Longitude | Altitude | Speed | Heading |
|---|---|---|---|---|---|
| 2026-05-05 18:41 | 51.51417 | 7.60999 | 433 ft | 0 kts | 144° |
| 2026-05-05 18:48 | 51.51434 | 7.60978 | 419 ft | 4 kts | 136° |
| 2026-05-05 18:48 | 51.51452 | 7.60946 | 419 ft | 4 kts | 116° |
| 2026-05-05 18:48 | 51.51457 | 7.60908 | 421 ft | 4 kts | 70° |
| 2026-05-05 18:49 | 51.51455 | 7.60898 | 421 ft | 0 kts | 60° |
| 2026-05-05 18:51 | 51.51459 | 7.60910 | 421 ft | 6 kts | 60° |
| 2026-05-05 18:51 | 51.51476 | 7.60960 | 424 ft | 2 kts | 60° |
| 2026-05-05 18:51 | 51.51484 | 7.60982 | 423 ft | 6 kts | 60° |
| 2026-05-05 18:52 | 51.51508 | 7.61048 | 426 ft | 5 kts | 51° |
| 2026-05-05 18:52 | 51.51556 | 7.61044 | 425 ft | 11 kts | 323° |
| 2026-05-05 18:52 | 51.51543 | 7.60913 | 422 ft | 17 kts | 239° |
| 2026-05-05 18:52 | 51.51473 | 7.60710 | 414 ft | 17 kts | 239° |
| 2026-05-05 18:53 | 51.51410 | 7.60532 | 420 ft | 10 kts | 240° |
| 2026-05-05 18:53 | 51.51362 | 7.60385 | 413 ft | 9 kts | 253° |
| 2026-05-05 18:53 | 51.51368 | 7.60317 | 419 ft | 9 kts | 301° |
| 2026-05-05 18:53 | 51.51398 | 7.60275 | 417 ft | 11 kts | 323° |
| 2026-05-05 18:54 | 51.51488 | 7.60255 | 409 ft | 16 kts | 36° |
| 2026-05-05 18:54 | 51.51530 | 7.60361 | 413 ft | 1 kts | 61° |
| 2026-05-05 18:54 | 51.51532 | 7.60365 | 413 ft | 0 kts | 61° |
| 2026-05-05 18:55 | 51.51566 | 7.60464 | 411 ft | 42 kts | 61° |
| 2026-05-05 18:55 | 51.51879 | 7.61355 | 411 ft | 137 kts | 60° |
| 2026-05-05 18:55 | 51.52471 | 7.62988 | 822 ft | 189 kts | 59° |
| 2026-05-05 18:55 | 51.53118 | 7.64931 | 1866 ft | 205 kts | 62° |
| 2026-05-05 18:56 | 51.53800 | 7.67032 | 2784 ft | 216 kts | 61° |
| 2026-05-05 18:56 | 51.54572 | 7.69183 | 3378 ft | 227 kts | 60° |
| 2026-05-05 18:56 | 51.55375 | 7.71413 | 4055 ft | 231 kts | 61° |
| 2026-05-05 18:56 | 51.56183 | 7.73674 | 4582 ft | 231 kts | 62° |
| 2026-05-05 18:57 | 51.56987 | 7.75942 | 4799 ft | 236 kts | 61° |
| 2026-05-05 18:57 | 51.57785 | 7.78190 | 4806 ft | 231 kts | 60° |
| 2026-05-05 18:57 | 51.58878 | 7.80091 | 4841 ft | 241 kts | 32° |
| 2026-05-05 18:57 | 51.60517 | 7.80750 | 5296 ft | 251 kts | 359° |
| 2026-05-05 18:58 | 51.62190 | 7.80010 | 6132 ft | 254 kts | 329° |
| 2026-05-05 18:58 | 51.63434 | 7.78009 | 6870 ft | 256 kts | 299° |
| 2026-05-05 18:58 | 51.64098 | 7.75342 | 7652 ft | 257 kts | 290° |
| 2026-05-05 18:58 | 51.64825 | 7.72693 | 8385 ft | 261 kts | 296° |
| 2026-05-05 18:59 | 51.65752 | 7.70159 | 9156 ft | 263 kts | 302° |
| 2026-05-05 18:59 | 51.66799 | 7.67712 | 9889 ft | 266 kts | 305° |
| 2026-05-05 18:59 | 51.67905 | 7.65293 | 10542 ft | 270 kts | 306° |
| 2026-05-05 18:59 | 51.69031 | 7.62886 | 11201 ft | 273 kts | 307° |
| 2026-05-05 19:00 | 51.70479 | 7.60898 | 11803 ft | 279 kts | 334° |
| 2026-05-05 19:00 | 51.72401 | 7.60304 | 12376 ft | 287 kts | 6° |
| 2026-05-05 19:00 | 51.74288 | 7.61242 | 13130 ft | 285 kts | 26° |
| 2026-05-05 19:00 | 51.76050 | 7.62715 | 13797 ft | 288 kts | 28° |
| 2026-05-05 19:01 | 51.77825 | 7.64239 | 14343 ft | 292 kts | 29° |
| 2026-05-05 19:01 | 51.79641 | 7.65743 | 14936 ft | 295 kts | 23° |
| 2026-05-05 19:01 | 51.81671 | 7.66266 | 15348 ft | 303 kts | 351° |
| 2026-05-05 19:01 | 51.83586 | 7.64979 | 15932 ft | 300 kts | 320° |
| 2026-05-05 19:02 | 51.84984 | 7.62510 | 16503 ft | 299 kts | 300° |
| 2026-05-05 19:02 | 51.86036 | 7.59586 | 17051 ft | 302 kts | 296° |
| 2026-05-05 19:02 | 51.87028 | 7.56563 | 17590 ft | 307 kts | 295° |
| 2026-05-05 19:02 | 51.88048 | 7.53393 | 17768 ft | 330 kts | 295° |
| 2026-05-05 19:03 | 51.89149 | 7.49981 | 17962 ft | 352 kts | 296° |
| 2026-05-05 19:03 | 51.90325 | 7.46369 | 18132 ft | 374 kts | 296° |
| 2026-05-05 19:03 | 51.91577 | 7.42553 | 18275 ft | 393 kts | 296° |
| 2026-05-05 19:03 | 51.92879 | 7.38611 | 18527 ft | 407 kts | 296° |
| 2026-05-05 19:04 | 51.94246 | 7.34484 | 19058 ft | 413 kts | 296° |
| 2026-05-05 19:04 | 51.95594 | 7.30424 | 19675 ft | 415 kts | 296° |
| 2026-05-05 19:04 | 51.96959 | 7.26305 | 19825 ft | 412 kts | 297° |
| 2026-05-05 19:04 | 51.98313 | 7.22213 | 19855 ft | 414 kts | 296° |
| 2026-05-05 19:05 | 51.99675 | 7.18085 | 19855 ft | 415 kts | 296° |
| 2026-05-05 19:05 | 52.01018 | 7.14010 | 19857 ft | 414 kts | 296° |
| 2026-05-05 19:05 | 52.02376 | 7.09880 | 19861 ft | 413 kts | 296° |
| 2026-05-05 19:05 | 52.03728 | 7.05763 | 19867 ft | 413 kts | 296° |
| 2026-05-05 19:06 | 52.05077 | 7.01646 | 19862 ft | 413 kts | 296° |
| 2026-05-05 19:06 | 52.06388 | 6.97640 | 19868 ft | 413 kts | 296° |
| 2026-05-05 19:06 | 52.07719 | 6.93563 | 19869 ft | 414 kts | 296° |
| 2026-05-05 19:06 | 52.09064 | 6.89438 | 19870 ft | 414 kts | 296° |
| 2026-05-05 19:07 | 52.10416 | 6.85287 | 19890 ft | 416 kts | 296° |
| 2026-05-05 19:07 | 52.11721 | 6.81051 | 20222 ft | 420 kts | 290° |
| 2026-05-05 19:07 | 52.12531 | 6.76531 | 21040 ft | 414 kts | 278° |
| 2026-05-05 19:07 | 52.12799 | 6.71886 | 21737 ft | 412 kts | 267° |
| 2026-05-05 19:08 | 52.12676 | 6.67215 | 22304 ft | 414 kts | 264° |
| 2026-05-05 19:08 | 52.12504 | 6.62515 | 22829 ft | 418 kts | 264° |
| 2026-05-05 19:08 | 52.12325 | 6.57774 | 23382 ft | 421 kts | 264° |
| 2026-05-05 19:08 | 52.12148 | 6.52984 | 23869 ft | 423 kts | 264° |
| 2026-05-05 19:09 | 52.11978 | 6.48188 | 24326 ft | 426 kts | 264° |
| 2026-05-05 19:09 | 52.11811 | 6.43362 | 24761 ft | 429 kts | 264° |
| 2026-05-05 19:09 | 52.11646 | 6.38492 | 25202 ft | 432 kts | 264° |
| 2026-05-05 19:09 | 52.11481 | 6.33601 | 25650 ft | 433 kts | 264° |
| 2026-05-05 19:10 | 52.11314 | 6.28675 | 25931 ft | 440 kts | 264° |
| 2026-05-05 19:10 | 52.11145 | 6.23730 | 26201 ft | 446 kts | 264° |
| 2026-05-05 19:10 | 52.10971 | 6.18694 | 26643 ft | 447 kts | 264° |
| 2026-05-05 19:10 | 52.10795 | 6.13643 | 27096 ft | 448 kts | 264° |
| 2026-05-05 19:11 | 52.10615 | 6.08549 | 27482 ft | 450 kts | 264° |
| 2026-05-05 19:11 | 52.10433 | 6.03452 | 27820 ft | 453 kts | 264° |
| 2026-05-05 19:11 | 52.10252 | 5.98475 | 28163 ft | 456 kts | 263° |
| 2026-05-05 19:11 | 52.10062 | 5.93302 | 28523 ft | 458 kts | 263° |
| 2026-05-05 19:12 | 52.09870 | 5.88128 | 28893 ft | 460 kts | 263° |
| 2026-05-05 19:12 | 52.09674 | 5.82915 | 29282 ft | 461 kts | 263° |
| 2026-05-05 19:12 | 52.09478 | 5.77756 | 29743 ft | 461 kts | 263° |
| 2026-05-05 19:12 | 52.09277 | 5.72507 | 30224 ft | 458 kts | 263° |
| 2026-05-05 19:13 | 52.09079 | 5.67414 | 30673 ft | 456 kts | 263° |
| 2026-05-05 19:13 | 52.08877 | 5.62274 | 31107 ft | 455 kts | 263° |
| 2026-05-05 19:13 | 52.08673 | 5.57146 | 31512 ft | 454 kts | 262° |
| 2026-05-05 19:13 | 52.08467 | 5.52024 | 31882 ft | 454 kts | 262° |
| 2026-05-05 19:14 | 52.08042 | 5.41709 | 31891 ft | 457 kts | 262° |
| 2026-05-05 19:14 | 52.07617 | 5.31451 | 31891 ft | 450 kts | 262° |
| 2026-05-05 19:15 | 52.07183 | 5.21305 | 31898 ft | 451 kts | 262° |
| 2026-05-05 19:15 | 52.06741 | 5.11193 | 31897 ft | 451 kts | 262° |
| 2026-05-05 19:16 | 52.06288 | 5.01016 | 31902 ft | 452 kts | 262° |
| 2026-05-05 19:16 | 52.05834 | 4.90971 | 31903 ft | 452 kts | 262° |
| 2026-05-05 19:17 | 52.05362 | 4.80754 | 31902 ft | 453 kts | 262° |
| 2026-05-05 19:17 | 52.04883 | 4.70548 | 31898 ft | 453 kts | 262° |
| 2026-05-05 19:18 | 52.04394 | 4.60348 | 31893 ft | 452 kts | 262° |
| 2026-05-05 19:18 | 52.03900 | 4.50218 | 31889 ft | 452 kts | 262° |
| 2026-05-05 19:19 | 52.03396 | 4.40057 | 31890 ft | 452 kts | 262° |
| 2026-05-05 19:19 | 52.02882 | 4.29869 | 31913 ft | 451 kts | 262° |
| 2026-05-05 19:20 | 52.02360 | 4.19716 | 31910 ft | 451 kts | 262° |
| 2026-05-05 19:20 | 52.01833 | 4.09617 | 31909 ft | 451 kts | 262° |
| 2026-05-05 19:21 | 52.01299 | 3.99575 | 31909 ft | 450 kts | 262° |
| 2026-05-05 19:21 | 52.00752 | 3.89438 | 31926 ft | 450 kts | 262° |
| 2026-05-05 19:22 | 52.00200 | 3.79378 | 31911 ft | 450 kts | 262° |
| 2026-05-05 19:22 | 51.99637 | 3.69254 | 31914 ft | 450 kts | 262° |
| 2026-05-05 19:23 | 51.99065 | 3.59146 | 31913 ft | 450 kts | 261° |
| 2026-05-05 19:23 | 51.98483 | 3.49023 | 31925 ft | 450 kts | 261° |
| 2026-05-05 19:24 | 51.97893 | 3.38900 | 31935 ft | 451 kts | 261° |
| 2026-05-05 19:24 | 51.97293 | 3.28752 | 31936 ft | 452 kts | 262° |
| 2026-05-05 19:25 | 51.96688 | 3.18650 | 31933 ft | 453 kts | 261° |
| 2026-05-05 19:25 | 51.96044 | 3.08522 | 31917 ft | 443 kts | 261° |
| 2026-05-05 19:26 | 51.95721 | 3.03656 | 31917 ft | 426 kts | 260° |
| 2026-05-05 19:26 | 51.95421 | 2.99172 | 31913 ft | 412 kts | 260° |
| 2026-05-05 19:26 | 51.95115 | 2.94628 | 31914 ft | 397 kts | 260° |
| 2026-05-05 19:26 | 51.94819 | 2.90245 | 31926 ft | 384 kts | 260° |
| 2026-05-05 19:27 | 51.94530 | 2.85986 | 31911 ft | 371 kts | 260° |
| 2026-05-05 19:27 | 51.94251 | 2.81901 | 31915 ft | 359 kts | 260° |
| 2026-05-05 19:27 | 51.93983 | 2.77989 | 31915 ft | 347 kts | 259° |
| 2026-05-05 19:27 | 51.93718 | 2.74122 | 31912 ft | 335 kts | 259° |
| 2026-05-05 19:28 | 51.93466 | 2.70470 | 31917 ft | 324 kts | 259° |
| 2026-05-05 19:28 | 51.93218 | 2.66892 | 31923 ft | 317 kts | 259° |
| 2026-05-05 19:28 | 51.92712 | 2.59632 | 31964 ft | 331 kts | 259° |
| 2026-05-05 19:29 | 51.92456 | 2.55919 | 31781 ft | 331 kts | 259° |
| 2026-05-05 19:29 | 51.92201 | 2.52215 | 31383 ft | 332 kts | 259° |
| 2026-05-05 19:29 | 51.91941 | 2.48473 | 30928 ft | 335 kts | 260° |
| 2026-05-05 19:29 | 51.91678 | 2.44690 | 30442 ft | 340 kts | 260° |
| 2026-05-05 19:30 | 51.91410 | 2.40855 | 29910 ft | 345 kts | 260° |
| 2026-05-05 19:30 | 51.91134 | 2.36947 | 29057 ft | 355 kts | 261° |
| 2026-05-05 19:30 | 51.90845 | 2.32898 | 27711 ft | 378 kts | 261° |
| 2026-05-05 19:30 | 51.90631 | 2.28529 | 26325 ft | 400 kts | 265° |
| 2026-05-05 19:31 | 51.90527 | 2.23927 | 25124 ft | 416 kts | 267° |
| 2026-05-05 19:31 | 51.90456 | 2.19215 | 24409 ft | 417 kts | 268° |
| 2026-05-05 19:31 | 51.90379 | 2.14530 | 23825 ft | 415 kts | 268° |
| 2026-05-05 19:31 | 51.90288 | 2.09897 | 23382 ft | 407 kts | 268° |
| 2026-05-05 19:32 | 51.90221 | 2.06867 | 22914 ft | 407 kts | 268° |
| 2026-05-05 19:32 | 51.90114 | 2.02308 | 22279 ft | 404 kts | 268° |
| 2026-05-05 19:32 | 51.89969 | 1.96390 | 21514 ft | 399 kts | 268° |
| 2026-05-05 19:32 | 51.89898 | 1.93405 | 21115 ft | 398 kts | 269° |
| 2026-05-05 19:33 | 51.90265 | 1.88986 | 20385 ft | 399 kts | 289° |
| 2026-05-05 19:33 | 51.91514 | 1.84996 | 19829 ft | 396 kts | 306° |
| 2026-05-05 19:33 | 51.93235 | 1.81553 | 19358 ft | 391 kts | 310° |
| 2026-05-05 19:33 | 51.94978 | 1.78255 | 18792 ft | 390 kts | 311° |
| 2026-05-05 19:34 | 51.96746 | 1.74932 | 18246 ft | 388 kts | 311° |
| 2026-05-05 19:34 | 51.98496 | 1.71619 | 17663 ft | 385 kts | 310° |
| 2026-05-05 19:34 | 52.00231 | 1.68300 | 17233 ft | 379 kts | 310° |
| 2026-05-05 19:35 | 52.03550 | 1.61879 | 16957 ft | 371 kts | 310° |
| 2026-05-05 19:35 | 52.05209 | 1.58652 | 16834 ft | 374 kts | 309° |
| 2026-05-05 19:35 | 52.06866 | 1.55422 | 16708 ft | 376 kts | 309° |
| 2026-05-05 19:35 | 52.08531 | 1.52170 | 16577 ft | 373 kts | 309° |
| 2026-05-05 19:36 | 52.10185 | 1.48937 | 16459 ft | 370 kts | 309° |
| 2026-05-05 19:36 | 52.11830 | 1.45717 | 16340 ft | 369 kts | 309° |
| 2026-05-05 19:36 | 52.13464 | 1.42516 | 16205 ft | 367 kts | 309° |
| 2026-05-05 19:36 | 52.15091 | 1.39309 | 16096 ft | 366 kts | 307° |
| 2026-05-05 19:37 | 52.16294 | 1.35677 | 15959 ft | 366 kts | 287° |
| 2026-05-05 19:37 | 52.16768 | 1.31619 | 15880 ft | 364 kts | 277° |
| 2026-05-05 19:37 | 52.17051 | 1.27509 | 15749 ft | 364 kts | 276° |
| 2026-05-05 19:37 | 52.17335 | 1.23458 | 15636 ft | 364 kts | 277° |
| 2026-05-05 19:38 | 52.17639 | 1.19361 | 15511 ft | 364 kts | 277° |
| 2026-05-05 19:38 | 52.17953 | 1.15279 | 15392 ft | 363 kts | 277° |
| 2026-05-05 19:38 | 52.18272 | 1.11194 | 15276 ft | 363 kts | 277° |
| 2026-05-05 19:38 | 52.18590 | 1.07118 | 15158 ft | 362 kts | 277° |
| 2026-05-05 19:39 | 52.18906 | 1.03050 | 15044 ft | 362 kts | 277° |
| 2026-05-05 19:39 | 52.19210 | 0.99109 | 14939 ft | 361 kts | 277° |
| 2026-05-05 19:39 | 52.19523 | 0.95047 | 14810 ft | 360 kts | 277° |
| 2026-05-05 19:39 | 52.19832 | 0.90995 | 14701 ft | 359 kts | 277° |
| 2026-05-05 19:40 | 52.20139 | 0.86958 | 14585 ft | 358 kts | 277° |
| 2026-05-05 19:40 | 52.20444 | 0.82935 | 14464 ft | 355 kts | 277° |
| 2026-05-05 19:40 | 52.20740 | 0.79006 | 14339 ft | 343 kts | 277° |
| 2026-05-05 19:40 | 52.21024 | 0.75222 | 14226 ft | 330 kts | 277° |
| 2026-05-05 19:41 | 52.21294 | 0.71614 | 14118 ft | 319 kts | 277° |
| 2026-05-05 19:41 | 52.21556 | 0.68084 | 14016 ft | 308 kts | 277° |
| 2026-05-05 19:41 | 52.21809 | 0.64666 | 13906 ft | 299 kts | 277° |
| 2026-05-05 19:41 | 52.22054 | 0.61341 | 13778 ft | 292 kts | 277° |
| 2026-05-05 19:42 | 52.22294 | 0.58065 | 13651 ft | 289 kts | 277° |
| 2026-05-05 19:42 | 52.22533 | 0.54800 | 13527 ft | 291 kts | 277° |
| 2026-05-05 19:42 | 52.22773 | 0.51494 | 13405 ft | 296 kts | 277° |
| 2026-05-05 19:42 | 52.23016 | 0.48145 | 13275 ft | 296 kts | 277° |
| 2026-05-05 19:43 | 52.23257 | 0.44816 | 13136 ft | 295 kts | 277° |
| 2026-05-05 19:43 | 52.23496 | 0.41496 | 13005 ft | 293 kts | 277° |
| 2026-05-05 19:43 | 52.23732 | 0.38202 | 12876 ft | 291 kts | 277° |
| 2026-05-05 19:43 | 52.23966 | 0.34931 | 12742 ft | 290 kts | 277° |
| 2026-05-05 19:44 | 52.24199 | 0.31670 | 12627 ft | 289 kts | 277° |
| 2026-05-05 19:44 | 52.24430 | 0.28424 | 12499 ft | 288 kts | 277° |
| 2026-05-05 19:44 | 52.24661 | 0.25151 | 12377 ft | 290 kts | 277° |
| 2026-05-05 19:44 | 52.24889 | 0.21910 | 12247 ft | 292 kts | 277° |
| 2026-05-05 19:45 | 52.25120 | 0.18616 | 12134 ft | 292 kts | 277° |
| 2026-05-05 19:45 | 52.25349 | 0.15324 | 12000 ft | 292 kts | 277° |
| 2026-05-05 19:45 | 52.25578 | 0.12028 | 11878 ft | 292 kts | 277° |
| 2026-05-05 19:45 | 52.25805 | 0.08738 | 11752 ft | 291 kts | 277° |
| 2026-05-05 19:46 | 52.26030 | 0.05478 | 11611 ft | 284 kts | 278° |
| 2026-05-05 19:46 | 52.26247 | 0.02318 | 11480 ft | 276 kts | 277° |
| 2026-05-05 19:46 | 52.26449 | -0.00637 | 11374 ft | 268 kts | 278° |
| 2026-05-05 19:46 | 52.26651 | -0.03625 | 11252 ft | 260 kts | 278° |
| 2026-05-05 19:47 | 52.26883 | -0.06506 | 11141 ft | 252 kts | 283° |
| 2026-05-05 19:47 | 52.27320 | -0.09238 | 11034 ft | 244 kts | 288° |
| 2026-05-05 19:47 | 52.27800 | -0.11863 | 10920 ft | 240 kts | 288° |
| 2026-05-05 19:47 | 52.28278 | -0.14466 | 10842 ft | 239 kts | 288° |
| 2026-05-05 19:48 | 52.28745 | -0.17048 | 10748 ft | 241 kts | 288° |
| 2026-05-05 19:48 | 52.29216 | -0.19689 | 10656 ft | 243 kts | 288° |
| 2026-05-05 19:48 | 52.29686 | -0.22360 | 10541 ft | 246 kts | 287° |
| 2026-05-05 19:48 | 52.30157 | -0.25056 | 10435 ft | 246 kts | 288° |
| 2026-05-05 19:49 | 52.30625 | -0.27746 | 10326 ft | 247 kts | 287° |
| 2026-05-05 19:49 | 52.30940 | -0.29567 | 10255 ft | 247 kts | 287° |
| 2026-05-05 19:49 | 52.31560 | -0.33157 | 10110 ft | 247 kts | 287° |
| 2026-05-05 19:49 | 52.32025 | -0.35862 | 9997 ft | 247 kts | 287° |
| 2026-05-05 19:50 | 52.32485 | -0.38547 | 9882 ft | 244 kts | 287° |
| 2026-05-05 19:50 | 52.32944 | -0.41189 | 9770 ft | 240 kts | 290° |
| 2026-05-05 19:50 | 52.33738 | -0.43555 | 9654 ft | 237 kts | 311° |
| 2026-05-05 19:50 | 52.35001 | -0.45257 | 9566 ft | 236 kts | 330° |
| 2026-05-05 19:51 | 52.36537 | -0.46164 | 9460 ft | 237 kts | 349° |
| 2026-05-05 19:51 | 52.38165 | -0.46179 | 9361 ft | 239 kts | 8° |
| 2026-05-05 19:51 | 52.39755 | -0.45235 | 9252 ft | 244 kts | 28° |
| 2026-05-05 19:51 | 52.41025 | -0.43428 | 9144 ft | 249 kts | 49° |
| 2026-05-05 19:52 | 52.41831 | -0.40909 | 9038 ft | 254 kts | 71° |
| 2026-05-05 19:52 | 52.42013 | -0.38016 | 8930 ft | 259 kts | 94° |
| 2026-05-05 19:52 | 52.41504 | -0.35177 | 8802 ft | 262 kts | 118° |
| 2026-05-05 19:52 | 52.40352 | -0.32882 | 8693 ft | 263 kts | 141° |
| 2026-05-05 19:53 | 52.38831 | -0.31234 | 8592 ft | 263 kts | 150° |
| 2026-05-05 19:53 | 52.37240 | -0.29727 | 8469 ft | 264 kts | 151° |
| 2026-05-05 19:53 | 52.35646 | -0.28218 | 8352 ft | 266 kts | 150° |
| 2026-05-05 19:53 | 52.34046 | -0.26688 | 8236 ft | 264 kts | 150° |
| 2026-05-05 19:54 | 52.32468 | -0.25170 | 8106 ft | 261 kts | 150° |
| 2026-05-05 19:54 | 52.30864 | -0.23816 | 7957 ft | 258 kts | 166° |
| 2026-05-05 19:54 | 52.29117 | -0.23849 | 7789 ft | 252 kts | 201° |
| 2026-05-05 19:54 | 52.27493 | -0.24911 | 7608 ft | 252 kts | 204° |
| 2026-05-05 19:55 | 52.25878 | -0.25983 | 7394 ft | 255 kts | 204° |
| 2026-05-05 19:55 | 52.24229 | -0.27076 | 7174 ft | 255 kts | 203° |
| 2026-05-05 19:55 | 52.22584 | -0.28158 | 6953 ft | 254 kts | 204° |
| 2026-05-05 19:55 | 52.20954 | -0.29227 | 6747 ft | 251 kts | 204° |
| 2026-05-05 19:56 | 52.19337 | -0.30286 | 6536 ft | 249 kts | 202° |
| 2026-05-05 19:56 | 52.17733 | -0.31332 | 6312 ft | 247 kts | 202° |
| 2026-05-05 19:56 | 52.16141 | -0.32368 | 6099 ft | 245 kts | 202° |
| 2026-05-05 19:56 | 52.14565 | -0.33391 | 5880 ft | 243 kts | 203° |
| 2026-05-05 19:57 | 52.12994 | -0.34411 | 5677 ft | 244 kts | 202° |
| 2026-05-05 19:57 | 52.11948 | -0.35088 | 5542 ft | 245 kts | 202° |
| 2026-05-05 19:57 | 52.09814 | -0.36471 | 5274 ft | 252 kts | 202° |
| 2026-05-05 19:57 | 52.08188 | -0.37523 | 5061 ft | 250 kts | 203° |
| 2026-05-05 19:58 | 52.06575 | -0.38565 | 4844 ft | 249 kts | 202° |
| 2026-05-05 19:58 | 52.04970 | -0.39601 | 4633 ft | 246 kts | 202° |
| 2026-05-05 19:58 | 52.03382 | -0.40626 | 4421 ft | 244 kts | 201° |
| 2026-05-05 19:58 | 52.01803 | -0.41644 | 4215 ft | 244 kts | 201° |
| 2026-05-05 19:59 | 52.00224 | -0.42661 | 4003 ft | 244 kts | 201° |
| 2026-05-05 19:59 | 51.98640 | -0.43681 | 3804 ft | 244 kts | 200° |
| 2026-05-05 19:59 | 51.97062 | -0.44695 | 3620 ft | 243 kts | 201° |
| 2026-05-05 19:59 | 51.95490 | -0.45706 | 3412 ft | 242 kts | 200° |
| 2026-05-05 20:00 | 51.93935 | -0.46706 | 3234 ft | 237 kts | 200° |
| 2026-05-05 20:00 | 51.92451 | -0.47659 | 3040 ft | 228 kts | 200° |
| 2026-05-05 20:00 | 51.91006 | -0.48586 | 2842 ft | 218 kts | 199° |
| 2026-05-05 20:00 | 51.89617 | -0.49475 | 2652 ft | 209 kts | 199° |
| 2026-05-05 20:01 | 51.88297 | -0.50320 | 2462 ft | 199 kts | 199° |
| 2026-05-05 20:01 | 51.87005 | -0.50775 | 2260 ft | 183 kts | 167° |
| 2026-05-05 20:01 | 51.86033 | -0.49783 | 2185 ft | 162 kts | 113° |
| 2026-05-05 20:01 | 51.85808 | -0.48106 | 2110 ft | 150 kts | 91° |
| 2026-05-05 20:02 | 51.85857 | -0.46469 | 2044 ft | 139 kts | 75° |
| 2026-05-05 20:02 | 51.86059 | -0.45028 | 2013 ft | 128 kts | 72° |
| 2026-05-05 20:02 | 51.86287 | -0.43647 | 1998 ft | 126 kts | 74° |
| 2026-05-05 20:02 | 51.86142 | -0.42246 | 1960 ft | 142 kts | 120° |
| 2026-05-05 20:03 | 51.85222 | -0.41390 | 2002 ft | 166 kts | 169° |
| 2026-05-05 20:03 | 51.84088 | -0.41841 | 2028 ft | 175 kts | 212° |
| 2026-05-05 20:03 | 51.83078 | -0.42965 | 2012 ft | 176 kts | 212° |
| 2026-05-05 20:03 | 51.82054 | -0.44062 | 2002 ft | 176 kts | 213° |
| 2026-05-05 20:04 | 51.81166 | -0.45405 | 1983 ft | 175 kts | 238° |
| 2026-05-05 20:04 | 51.80718 | -0.47198 | 2027 ft | 175 kts | 252° |
| 2026-05-05 20:04 | 51.80305 | -0.49055 | 2003 ft | 176 kts | 253° |
| 2026-05-05 20:04 | 51.79949 | -0.50941 | 1993 ft | 174 kts | 255° |
| 2026-05-05 20:05 | 51.79668 | -0.52825 | 1985 ft | 172 kts | 270° |
| 2026-05-05 20:05 | 51.79908 | -0.54632 | 1990 ft | 160 kts | 306° |
| 2026-05-05 20:05 | 51.80549 | -0.56137 | 2011 ft | 167 kts | 315° |
| 2026-05-05 20:05 | 51.81475 | -0.57190 | 2010 ft | 160 kts | 340° |
| 2026-05-05 20:06 | 51.82523 | -0.57610 | 1979 ft | 152 kts | 9° |
| 2026-05-05 20:06 | 51.83349 | -0.56743 | 2014 ft | 145 kts | 60° |
| 2026-05-05 20:06 | 51.83874 | -0.55335 | 2001 ft | 147 kts | 52° |
| 2026-05-05 20:06 | 51.84381 | -0.53910 | 2028 ft | 145 kts | 67° |
| 2026-05-05 20:07 | 51.84734 | -0.52437 | 1990 ft | 138 kts | 68° |
| 2026-05-05 20:07 | 51.85026 | -0.50982 | 1991 ft | 133 kts | 70° |
| 2026-05-05 20:07 | 51.85283 | -0.49526 | 1982 ft | 138 kts | 71° |
| 2026-05-05 20:07 | 51.85543 | -0.48018 | 1817 ft | 137 kts | 72° |
| 2026-05-05 20:08 | 51.85792 | -0.46559 | 1645 ft | 130 kts | 72° |
| 2026-05-05 20:08 | 51.86036 | -0.45143 | 1443 ft | 133 kts | 71° |
| 2026-05-05 20:08 | 51.86285 | -0.43688 | 1251 ft | 135 kts | 72° |
| 2026-05-05 20:08 | 51.86542 | -0.42190 | 1057 ft | 138 kts | 69° |
| 2026-05-05 20:09 | 51.86794 | -0.40729 | 898 ft | 133 kts | 70° |
| 2026-05-05 20:09 | 51.87048 | -0.39232 | 677 ft | 141 kts | 71° |
| 2026-05-05 20:09 | 51.87316 | -0.37730 | 522 ft | 132 kts | 73° |
| 2026-05-05 20:09 | 51.87504 | -0.36618 | 525 ft | 67 kts | 75° |
| 2026-05-05 20:10 | 51.87593 | -0.36097 | 515 ft | 29 kts | 75° |
| 2026-05-05 20:10 | 51.87640 | -0.35927 | 515 ft | 8 kts | 25° |
| 2026-05-05 20:10 | 51.87698 | -0.35934 | 515 ft | 10 kts | 346° |
| 2026-05-05 20:10 | 51.87746 | -0.35961 | 515 ft | 8 kts | 330° |
| 2026-05-05 20:11 | 51.87782 | -0.36059 | 517 ft | 13 kts | 269° |
| 2026-05-05 20:11 | 51.87753 | -0.36239 | 517 ft | 18 kts | 254° |
| 2026-05-05 20:11 | 51.87731 | -0.36366 | 517 ft | 14 kts | 254° |
| 2026-05-05 20:11 | 51.87697 | -0.36561 | 520 ft | 22 kts | 256° |
| 2026-05-05 20:12 | 51.87655 | -0.36816 | 524 ft | 21 kts | 255° |
| 2026-05-05 20:12 | 51.87612 | -0.37073 | 521 ft | 28 kts | 255° |
| 2026-05-05 20:12 | 51.87577 | -0.37344 | 521 ft | 15 kts | 282° |
| 2026-05-05 20:12 | 51.87651 | -0.37489 | 521 ft | 20 kts | 326° |
| 2026-05-05 20:13 | 51.87739 | -0.37706 | 521 ft | 25 kts | 295° |
| 2026-05-05 20:13 | 51.87810 | -0.37939 | 522 ft | 26 kts | 309° |
| 2026-05-05 20:13 | 51.87973 | -0.37996 | 522 ft | 23 kts | 32° |
| 2026-05-05 20:13 | 51.88097 | -0.37826 | 522 ft | 22 kts | 37° |
| 2026-05-05 20:14 | 51.88184 | -0.37656 | 520 ft | 17 kts | 63° |
| 2026-05-05 20:14 | 51.88211 | -0.37556 | 515 ft | 6 kts | 87° |
| 2026-05-05 20:14 | 51.88205 | -0.37505 | 515 ft | 3 kts | 102° |
| 2026-05-05 20:14 | 51.88207 | -0.37447 | 515 ft | 9 kts | 75° |
| 2026-05-05 20:15 | 51.88206 | -0.37404 | 515 ft | 1 kts | 117° |
| 2026-05-05 20:15 | 51.88197 | -0.37394 | 515 ft | 4 kts | 145° |
| 2026-05-05 20:15 | 51.88181 | -0.37382 | 516 ft | 3 kts | 159° |
| 2026-05-05 20:15 | 51.88168 | -0.37374 | 516 ft | 1 kts | 160° |
| 2026-05-05 20:16 | 51.88165 | -0.37372 | 516 ft | 0 kts | 160° |